sensor_id;sensor_type;location;lat;lon;timestamp;pressure;altitude;pressure_sealevel;temperature;humidity
41830;BME280;38614;43.472;23.936;2023-01-29T00:00:49;100557.84;;;0.45;100.00
41830;BME280;38614;43.472;23.936;2023-01-29T00:03:44;100550.56;;;0.40;100.00
41830;BME280;38614;43.472;23.936;2023-01-29T00:06:32;100577.97;;;0.44;100.00
41830;BME280;38614;43.472;23.936;2023-01-29T00:09:19;100561.34;;;0.50;100.00
41830;BME280;38614;43.472;23.936;2023-01-29T00:12:07;100569.81;;;0.49;100.00
41830;BME280;38614;43.472;23.936;2023-01-29T00:14:55;100572.47;;;0.54;100.00
41830;BME280;38614;43.472;23.936;2023-01-29T00:17:43;100581.44;;;0.54;100.00
41830;BME280;38614;43.472;23.936;2023-01-29T00:20:31;100590.97;;;0.52;100.00
41830;BME280;38614;43.472;23.936;2023-01-29T00:23:19;100583.13;;;0.50;100.00
41830;BME280;38614;43.472;23.936;2023-01-29T00:26:07;100582.31;;;0.50;100.00
41830;BME280;38614;43.472;23.936;2023-01-29T00:28:55;100576.41;;;0.38;100.00
41830;BME280;38614;43.472;23.936;2023-01-29T00:31:44;100539.47;;;0.26;100.00
41830;BME280;38614;43.472;23.936;2023-01-29T00:34:32;100566.66;;;0.26;100.00
41830;BME280;38614;43.472;23.936;2023-01-29T00:37:22;100595.38;;;0.43;100.00
41830;BME280;38614;43.472;23.936;2023-01-29T00:40:10;100599.13;;;0.57;100.00
41830;BME280;38614;43.472;23.936;2023-01-29T00:42:57;100592.38;;;0.49;100.00
41830;BME280;38614;43.472;23.936;2023-01-29T00:46:03;100591.03;;;0.47;100.00
41830;BME280;38614;43.472;23.936;2023-01-29T00:48:53;100594.28;;;0.49;100.00
41830;BME280;38614;43.472;23.936;2023-01-29T00:51:42;100600.53;;;0.44;100.00
41830;BME280;38614;43.472;23.936;2023-01-29T00:54:30;100607.81;;;0.54;100.00
41830;BME280;38614;43.472;23.936;2023-01-29T00:57:19;100600.00;;;0.42;100.00
41830;BME280;38614;43.472;23.936;2023-01-29T01:00:10;100610.88;;;0.47;100.00
41830;BME280;38614;43.472;23.936;2023-01-29T01:02:58;100615.22;;;0.43;100.00
41830;BME280;38614;43.472;23.936;2023-01-29T01:06:05;100604.34;;;0.43;100.00
41830;BME280;38614;43.472;23.936;2023-01-29T01:08:53;100598.41;;;0.36;100.00
41830;BME280;38614;43.472;23.936;2023-01-29T01:11:59;100587.09;;;0.19;100.00
41830;BME280;38614;43.472;23.936;2023-01-29T01:14:48;100611.69;;;0.43;100.00
41830;BME280;38614;43.472;23.936;2023-01-29T01:17:36;100577.84;;;0.20;100.00
41830;BME280;38614;43.472;23.936;2023-01-29T01:20:25;100617.44;;;0.36;100.00
41830;BME280;38614;43.472;23.936;2023-01-29T01:23:13;100609.28;;;0.36;100.00
41830;BME280;38614;43.472;23.936;2023-01-29T01:26:01;100630.22;;;0.36;100.00
41830;BME280;38614;43.472;23.936;2023-01-29T01:28:49;100615.53;;;0.37;100.00
41830;BME280;38614;43.472;23.936;2023-01-29T01:31:37;100620.44;;;0.40;100.00
41830;BME280;38614;43.472;23.936;2023-01-29T01:34:27;100604.13;;;0.35;100.00
41830;BME280;38614;43.472;23.936;2023-01-29T01:37:17;100616.09;;;0.34;100.00
41830;BME280;38614;43.472;23.936;2023-01-29T01:40:09;100622.34;;;0.34;100.00
41830;BME280;38614;43.472;23.936;2023-01-29T01:42:59;100615.53;;;0.42;100.00
41830;BME280;38614;43.472;23.936;2023-01-29T01:45:48;100625.00;;;0.44;100.00
41830;BME280;38614;43.472;23.936;2023-01-29T01:48:36;100621.53;;;0.39;100.00
41830;BME280;38614;43.472;23.936;2023-01-29T01:51:25;100617.44;;;0.41;100.00
41830;BME280;38614;43.472;23.936;2023-01-29T01:54:23;100620.66;;;0.48;100.00
41830;BME280;38614;43.472;23.936;2023-01-29T01:57:17;100619.56;;;0.49;100.00
41830;BME280;38614;43.472;23.936;2023-01-29T02:00:14;100627.72;;;0.44;100.00
41830;BME280;38614;43.472;23.936;2023-01-29T02:03:03;100628.53;;;0.45;100.00
41830;BME280;38614;43.472;23.936;2023-01-29T02:06:10;100636.75;;;0.40;100.00
41830;BME280;38614;43.472;23.936;2023-01-29T02:09:20;100623.16;;;0.35;100.00
41830;BME280;38614;43.472;23.936;2023-01-29T02:12:22;100630.25;;;0.31;100.00
41830;BME280;38614;43.472;23.936;2023-01-29T02:15:11;100609.84;;;0.33;100.00
41830;BME280;38614;43.472;23.936;2023-01-29T02:17:59;100615.63;;;0.21;100.00
41830;BME280;38614;43.472;23.936;2023-01-29T02:21:06;100622.81;;;0.46;100.00
41830;BME280;38614;43.472;23.936;2023-01-29T02:24:20;100627.44;;;0.46;100.00
41830;BME280;38614;43.472;23.936;2023-01-29T02:27:40;100637.50;;;0.45;100.00
41830;BME280;38614;43.472;23.936;2023-01-29T02:30:48;100620.44;;;0.35;100.00
41830;BME280;38614;43.472;23.936;2023-01-29T02:37:04;100646.75;;;0.49;100.00
41830;BME280;38614;43.472;23.936;2023-01-29T02:43:00;100644.28;;;0.53;100.00
41830;BME280;38614;43.472;23.936;2023-01-29T02:52:09;100645.75;;;0.25;100.00
41830;BME280;38614;43.472;23.936;2023-01-29T02:55:07;100650.84;;;0.47;100.00
41830;BME280;38614;43.472;23.936;2023-01-29T02:58:12;100642.19;;;0.35;100.00
41830;BME280;38614;43.472;23.936;2023-01-29T03:01:07;100661.16;;;0.50;100.00
41830;BME280;38614;43.472;23.936;2023-01-29T03:04:10;100655.22;;;0.43;100.00
41830;BME280;38614;43.472;23.936;2023-01-29T03:07:03;100660.66;;;0.43;100.00
41830;BME280;38614;43.472;23.936;2023-01-29T03:09:55;100648.16;;;0.42;100.00
41830;BME280;38614;43.472;23.936;2023-01-29T03:12:48;100670.13;;;0.50;100.00
41830;BME280;38614;43.472;23.936;2023-01-29T03:15:43;100659.78;;;0.57;100.00
41830;BME280;38614;43.472;23.936;2023-01-29T03:18:56;100636.28;;;0.22;100.00
41830;BME280;38614;43.472;23.936;2023-01-29T03:21:49;100665.56;;;0.41;100.00
41830;BME280;38614;43.472;23.936;2023-01-29T03:24:57;100664.69;;;0.50;100.00
41830;BME280;38614;43.472;23.936;2023-01-29T03:28:07;100669.84;;;0.52;100.00
41830;BME280;38614;43.472;23.936;2023-01-29T03:31:17;100665.56;;;0.41;100.00
41830;BME280;38614;43.472;23.936;2023-01-29T03:34:26;100675.06;;;0.43;100.00
41830;BME280;38614;43.472;23.936;2023-01-29T03:37:42;100670.94;;;0.46;100.00
41830;BME280;38614;43.472;23.936;2023-01-29T03:40:44;100670.94;;;0.51;100.00
41830;BME280;38614;43.472;23.936;2023-01-29T03:43:39;100653.34;;;0.33;100.00
41830;BME280;38614;43.472;23.936;2023-01-29T03:46:52;100685.63;;;0.50;100.00
41830;BME280;38614;43.472;23.936;2023-01-29T03:49:58;100674.25;;;0.43;100.00
41830;BME280;38614;43.472;23.936;2023-01-29T03:52:55;100654.72;;;0.31;100.00
41830;BME280;38614;43.472;23.936;2023-01-29T04:02:33;100684.28;;;0.47;100.00
41830;BME280;38614;43.472;23.936;2023-01-29T04:05:31;100674.53;;;0.41;100.00
41830;BME280;38614;43.472;23.936;2023-01-29T04:12:01;100667.41;;;0.50;100.00
41830;BME280;38614;43.472;23.936;2023-01-29T04:14:52;100679.91;;;0.46;100.00
41830;BME280;38614;43.472;23.936;2023-01-29T04:17:44;100664.97;;;0.44;100.00
41830;BME280;38614;43.472;23.936;2023-01-29T04:20:42;100691.34;;;0.48;100.00
41830;BME280;38614;43.472;23.936;2023-01-29T04:23:32;100679.91;;;0.46;100.00
41830;BME280;38614;43.472;23.936;2023-01-29T04:26:54;100686.69;;;0.54;100.00
41830;BME280;38614;43.472;23.936;2023-01-29T04:29:52;100673.41;;;0.47;100.00
41830;BME280;38614;43.472;23.936;2023-01-29T04:32:59;100664.22;;;0.38;100.00
41830;BME280;38614;43.472;23.936;2023-01-29T04:42:14;100693.81;;;0.45;100.00
41830;BME280;38614;43.472;23.936;2023-01-29T04:57:32;100706.00;;;0.52;100.00
41830;BME280;38614;43.472;23.936;2023-01-29T05:00:28;100713.34;;;0.52;100.00
41830;BME280;38614;43.472;23.936;2023-01-29T05:03:20;100689.47;;;0.44;100.00
41830;BME280;38614;43.472;23.936;2023-01-29T05:06:10;100687.34;;;0.31;100.00
41830;BME280;38614;43.472;23.936;2023-01-29T05:08:59;100719.66;;;0.47;100.00
41830;BME280;38614;43.472;23.936;2023-01-29T05:11:48;100707.69;;;0.43;100.00
41830;BME280;38614;43.472;23.936;2023-01-29T05:14:41;100719.88;;;0.51;100.00
41830;BME280;38614;43.472;23.936;2023-01-29T05:17:30;100687.06;;;0.32;100.00
41830;BME280;38614;43.472;23.936;2023-01-29T05:20:19;100725.84;;;0.53;100.00
41830;BME280;38614;43.472;23.936;2023-01-29T05:23:25;100717.97;;;0.51;100.00
41830;BME280;38614;43.472;23.936;2023-01-29T05:26:13;100725.31;;;0.56;100.00
41830;BME280;38614;43.472;23.936;2023-01-29T05:29:20;100715.75;;;0.64;100.00
41830;BME280;38614;43.472;23.936;2023-01-29T05:32:08;100710.34;;;0.53;100.00
41830;BME280;38614;43.472;23.936;2023-01-29T05:34:56;100725.53;;;0.65;100.00
41830;BME280;38614;43.472;23.936;2023-01-29T05:37:45;100711.97;;;0.54;100.00
41830;BME280;38614;43.472;23.936;2023-01-29T05:40:33;100735.88;;;0.63;100.00
41830;BME280;38614;43.472;23.936;2023-01-29T05:43:23;100727.47;;;0.54;100.00
41830;BME280;38614;43.472;23.936;2023-01-29T05:46:11;100731.00;;;0.60;100.00
41830;BME280;38614;43.472;23.936;2023-01-29T05:48:59;100735.34;;;0.61;100.00
41830;BME280;38614;43.472;23.936;2023-01-29T05:51:49;100718.78;;;0.57;100.00
41830;BME280;38614;43.472;23.936;2023-01-29T05:54:37;100723.09;;;0.63;100.00
41830;BME280;38614;43.472;23.936;2023-01-29T05:57:27;100735.09;;;0.57;100.00
41830;BME280;38614;43.472;23.936;2023-01-29T06:00:15;100753.25;;;0.72;100.00
41830;BME280;38614;43.472;23.936;2023-01-29T06:03:03;100755.09;;;0.81;100.00
41830;BME280;38614;43.472;23.936;2023-01-29T06:05:51;100723.41;;;0.56;100.00
41830;BME280;38614;43.472;23.936;2023-01-29T06:08:39;100764.66;;;0.74;100.00
41830;BME280;38614;43.472;23.936;2023-01-29T06:11:27;100757.88;;;0.71;100.00
41830;BME280;38614;43.472;23.936;2023-01-29T06:14:15;100769.28;;;0.78;100.00
41830;BME280;38614;43.472;23.936;2023-01-29T06:17:03;100767.09;;;0.80;100.00
41830;BME280;38614;43.472;23.936;2023-01-29T06:20:09;100761.69;;;0.75;100.00
41830;BME280;38614;43.472;23.936;2023-01-29T06:23:00;100763.84;;;0.78;100.00
41830;BME280;38614;43.472;23.936;2023-01-29T06:25:48;100741.03;;;0.64;100.00
41830;BME280;38614;43.472;23.936;2023-01-29T06:28:36;100765.47;;;0.79;100.00
41830;BME280;38614;43.472;23.936;2023-01-29T06:31:24;100773.88;;;0.83;100.00
41830;BME280;38614;43.472;23.936;2023-01-29T06:34:27;100777.16;;;0.85;100.00
41830;BME280;38614;43.472;23.936;2023-01-29T06:37:15;100786.66;;;0.88;100.00
41830;BME280;38614;43.472;23.936;2023-01-29T06:40:03;100756.53;;;0.64;100.00
41830;BME280;38614;43.472;23.936;2023-01-29T06:42:51;100792.09;;;0.88;100.00
41830;BME280;38614;43.472;23.936;2023-01-29T06:45:46;100757.59;;;0.78;100.00
41830;BME280;38614;43.472;23.936;2023-01-29T06:48:34;100783.31;;;1.01;100.00
41830;BME280;38614;43.472;23.936;2023-01-29T06:51:32;100804.16;;;1.21;100.00
41830;BME280;38614;43.472;23.936;2023-01-29T06:54:22;100783.81;;;1.13;100.00
41830;BME280;38614;43.472;23.936;2023-01-29T06:57:10;100811.69;;;1.39;100.00
41830;BME280;38614;43.472;23.936;2023-01-29T06:59:58;100790.16;;;1.42;100.00
41830;BME280;38614;43.472;23.936;2023-01-29T07:02:49;100804.97;;;1.70;100.00
41830;BME280;38614;43.472;23.936;2023-01-29T07:05:37;100767.22;;;1.49;100.00
41830;BME280;38614;43.472;23.936;2023-01-29T07:08:25;100791.06;;;1.67;100.00
41830;BME280;38614;43.472;23.936;2023-01-29T07:11:12;100820.03;;;1.92;100.00
41830;BME280;38614;43.472;23.936;2023-01-29T07:14:00;100811.66;;;1.83;100.00
41830;BME280;38614;43.472;23.936;2023-01-29T07:16:48;100817.75;;;2.04;100.00
41830;BME280;38614;43.472;23.936;2023-01-29T07:19:38;100815.81;;;2.10;100.00
41830;BME280;38614;43.472;23.936;2023-01-29T07:22:25;100816.53;;;2.20;100.00
41830;BME280;38614;43.472;23.936;2023-01-29T07:25:13;100823.19;;;2.38;100.00
41830;BME280;38614;43.472;23.936;2023-01-29T07:28:02;100820.97;;;2.40;100.00
41830;BME280;38614;43.472;23.936;2023-01-29T07:30:55;100822.06;;;2.39;100.00
41830;BME280;38614;43.472;23.936;2023-01-29T07:33:45;100821.25;;;2.39;100.00
41830;BME280;38614;43.472;23.936;2023-01-29T07:36:32;100821.03;;;2.59;100.00
41830;BME280;38614;43.472;23.936;2023-01-29T07:39:20;100817.41;;;2.69;100.00
41830;BME280;38614;43.472;23.936;2023-01-29T07:42:08;100789.22;;;2.49;100.00
41830;BME280;38614;43.472;23.936;2023-01-29T07:44:56;100815.72;;;2.73;100.00
41830;BME280;38614;43.472;23.936;2023-01-29T07:47:43;100812.38;;;2.81;100.00
41830;BME280;38614;43.472;23.936;2023-01-29T07:50:33;100824.91;;;2.82;100.00
41830;BME280;38614;43.472;23.936;2023-01-29T07:53:26;100815.31;;;2.84;100.00
41830;BME280;38614;43.472;23.936;2023-01-29T07:56:18;100819.97;;;2.84;100.00
41830;BME280;38614;43.472;23.936;2023-01-29T07:59:05;100812.00;;;2.88;100.00
41830;BME280;38614;43.472;23.936;2023-01-29T08:01:53;100820.47;;;2.86;100.00
41830;BME280;38614;43.472;23.936;2023-01-29T08:04:46;100792.78;;;2.74;100.00
41830;BME280;38614;43.472;23.936;2023-01-29T08:07:34;100796.59;;;2.49;100.00
41830;BME280;38614;43.472;23.936;2023-01-29T08:10:22;100800.72;;;2.46;100.00
41830;BME280;38614;43.472;23.936;2023-01-29T08:13:09;100831.63;;;2.66;100.00
41830;BME280;38614;43.472;23.936;2023-01-29T08:16:01;100804.97;;;2.34;100.00
41830;BME280;38614;43.472;23.936;2023-01-29T08:18:53;100836.97;;;2.52;100.00
41830;BME280;38614;43.472;23.936;2023-01-29T08:21:40;100836.91;;;2.57;100.00
41830;BME280;38614;43.472;23.936;2023-01-29T08:24:28;100817.13;;;2.41;100.00
41830;BME280;38614;43.472;23.936;2023-01-29T08:27:36;100847.09;;;2.46;100.00
41830;BME280;38614;43.472;23.936;2023-01-29T08:30:31;100850.41;;;2.72;100.00
41830;BME280;38614;43.472;23.936;2023-01-29T08:33:19;100852.88;;;2.93;100.00
41830;BME280;38614;43.472;23.936;2023-01-29T08:36:19;100847.78;;;3.10;100.00
41830;BME280;38614;43.472;23.936;2023-01-29T08:39:07;100847.00;;;3.28;100.00
41830;BME280;38614;43.472;23.936;2023-01-29T08:41:55;100845.16;;;3.42;100.00
41830;BME280;38614;43.472;23.936;2023-01-29T08:44:42;100841.16;;;3.35;100.00
41830;BME280;38614;43.472;23.936;2023-01-29T08:47:35;100833.63;;;3.27;100.00
41830;BME280;38614;43.472;23.936;2023-01-29T08:50:31;100846.78;;;3.43;100.00
41830;BME280;38614;43.472;23.936;2023-01-29T08:53:21;100853.75;;;3.55;100.00
41830;BME280;38614;43.472;23.936;2023-01-29T08:56:11;100855.28;;;3.61;100.00
41830;BME280;38614;43.472;23.936;2023-01-29T08:58:59;100840.22;;;3.45;100.00
41830;BME280;38614;43.472;23.936;2023-01-29T09:01:46;100847.53;;;3.49;100.00
41830;BME280;38614;43.472;23.936;2023-01-29T09:04:38;100848.31;;;3.31;100.00
41830;BME280;38614;43.472;23.936;2023-01-29T09:07:28;100856.16;;;3.37;100.00
41830;BME280;38614;43.472;23.936;2023-01-29T09:10:18;100848.84;;;3.52;100.00
41830;BME280;38614;43.472;23.936;2023-01-29T09:13:06;100846.56;;;3.78;100.00
41830;BME280;38614;43.472;23.936;2023-01-29T09:15:58;100795.66;;;3.44;100.00
41830;BME280;38614;43.472;23.936;2023-01-29T09:18:46;100850.84;;;3.84;100.00
41830;BME280;38614;43.472;23.936;2023-01-29T09:21:34;100813.09;;;3.67;100.00
41830;BME280;38614;43.472;23.936;2023-01-29T09:24:22;100814.41;;;3.88;100.00
41830;BME280;38614;43.472;23.936;2023-01-29T09:27:09;100834.31;;;4.08;100.00
41830;BME280;38614;43.472;23.936;2023-01-29T09:29:57;100812.09;;;4.28;100.00
41830;BME280;38614;43.472;23.936;2023-01-29T09:32:48;100809.94;;;4.11;100.00
41830;BME280;38614;43.472;23.936;2023-01-29T09:35:44;100787.16;;;4.16;100.00
41830;BME280;38614;43.472;23.936;2023-01-29T09:38:33;100806.41;;;4.24;100.00
41830;BME280;38614;43.472;23.936;2023-01-29T09:41:36;100810.50;;;4.54;100.00
41830;BME280;38614;43.472;23.936;2023-01-29T09:47:47;100798.63;;;4.32;100.00
41830;BME280;38614;43.472;23.936;2023-01-29T09:50:48;100796.94;;;4.49;100.00
41830;BME280;38614;43.472;23.936;2023-01-29T09:53:39;100789.22;;;4.38;100.00
41830;BME280;38614;43.472;23.936;2023-01-29T09:56:33;100777.44;;;4.23;100.00
41830;BME280;38614;43.472;23.936;2023-01-29T09:59:24;100790.00;;;4.24;100.00
41830;BME280;38614;43.472;23.936;2023-01-29T10:08:50;100785.44;;;3.87;100.00
41830;BME280;38614;43.472;23.936;2023-01-29T10:11:56;100787.88;;;3.89;100.00
41830;BME280;38614;43.472;23.936;2023-01-29T10:14:54;100721.75;;;3.54;100.00
41830;BME280;38614;43.472;23.936;2023-01-29T10:24:34;100771.69;;;3.92;100.00
41830;BME280;38614;43.472;23.936;2023-01-29T10:27:29;100761.34;;;3.89;100.00
41830;BME280;38614;43.472;23.936;2023-01-29T10:31:01;100764.69;;;3.86;100.00
41830;BME280;38614;43.472;23.936;2023-01-29T10:33:55;100742.00;;;3.86;100.00
41830;BME280;38614;43.472;23.936;2023-01-29T10:36:49;100753.47;;;3.69;100.00
41830;BME280;38614;43.472;23.936;2023-01-29T10:39:37;100743.81;;;3.90;100.00
41830;BME280;38614;43.472;23.936;2023-01-29T10:42:39;100752.50;;;4.11;100.00
41830;BME280;38614;43.472;23.936;2023-01-29T10:54:36;100754.81;;;4.04;100.00
41830;BME280;38614;43.472;23.936;2023-01-29T11:00:52;100702.31;;;3.88;100.00
41830;BME280;38614;43.472;23.936;2023-01-29T11:03:39;100745.09;;;4.12;100.00
41830;BME280;38614;43.472;23.936;2023-01-29T11:06:30;100712.00;;;3.81;100.00
41830;BME280;38614;43.472;23.936;2023-01-29T11:12:20;100716.41;;;3.95;100.00
41830;BME280;38614;43.472;23.936;2023-01-29T11:15:17;100726.91;;;3.88;100.00
41830;BME280;38614;43.472;23.936;2023-01-29T11:18:12;100720.38;;;4.03;100.00
41830;BME280;38614;43.472;23.936;2023-01-29T11:21:03;100673.41;;;3.68;100.00
41830;BME280;38614;43.472;23.936;2023-01-29T11:24:17;100715.31;;;4.10;100.00
41830;BME280;38614;43.472;23.936;2023-01-29T11:27:23;100698.91;;;4.24;100.00
41830;BME280;38614;43.472;23.936;2023-01-29T11:30:29;100701.75;;;4.19;100.00
41830;BME280;38614;43.472;23.936;2023-01-29T11:33:22;100651.06;;;3.80;100.00
41830;BME280;38614;43.472;23.936;2023-01-29T11:36:31;100706.81;;;4.25;100.00
41830;BME280;38614;43.472;23.936;2023-01-29T11:39:21;100704.56;;;4.27;100.00
41830;BME280;38614;43.472;23.936;2023-01-29T11:42:18;100695.25;;;4.15;100.00
41830;BME280;38614;43.472;23.936;2023-01-29T11:45:27;100687.97;;;4.10;100.00
41830;BME280;38614;43.472;23.936;2023-01-29T11:48:24;100674.19;;;4.02;100.00
41830;BME280;38614;43.472;23.936;2023-01-29T11:51:25;100693.94;;;4.26;100.00
41830;BME280;38614;43.472;23.936;2023-01-29T11:54:16;100689.97;;;4.18;100.00
41830;BME280;38614;43.472;23.936;2023-01-29T11:57:21;100650.78;;;3.95;100.00
41830;BME280;38614;43.472;23.936;2023-01-29T12:00:23;100659.78;;;3.96;100.00
41830;BME280;38614;43.472;23.936;2023-01-29T12:03:14;100666.41;;;4.22;100.00
41830;BME280;38614;43.472;23.936;2023-01-29T12:06:28;100679.34;;;4.17;100.00
41830;BME280;38614;43.472;23.936;2023-01-29T12:09:23;100686.56;;;4.40;100.00
41830;BME280;38614;43.472;23.936;2023-01-29T12:12:30;100689.28;;;4.40;100.00
41830;BME280;38614;43.472;23.936;2023-01-29T12:15:22;100634.75;;;3.89;100.00
41830;BME280;38614;43.472;23.936;2023-01-29T12:18:31;100688.91;;;4.19;100.00
41830;BME280;38614;43.472;23.936;2023-01-29T12:24:51;100650.69;;;4.00;100.00
41830;BME280;38614;43.472;23.936;2023-01-29T12:27:58;100689.59;;;4.25;100.00
41830;BME280;38614;43.472;23.936;2023-01-29T12:40:37;100681.91;;;4.41;100.00
41830;BME280;38614;43.472;23.936;2023-01-29T12:43:35;100641.47;;;4.10;100.00
41830;BME280;38614;43.472;23.936;2023-01-29T12:46:28;100682.09;;;4.31;100.00
41830;BME280;38614;43.472;23.936;2023-01-29T12:49:25;100680.59;;;4.38;100.00
41830;BME280;38614;43.472;23.936;2023-01-29T12:52:22;100690.19;;;4.36;100.00
41830;BME280;38614;43.472;23.936;2023-01-29T12:55:27;100690.81;;;4.60;100.00
41830;BME280;38614;43.472;23.936;2023-01-29T12:58:38;100685.53;;;4.50;100.00
41830;BME280;38614;43.472;23.936;2023-01-29T13:01:33;100688.38;;;4.45;100.00
41830;BME280;38614;43.472;23.936;2023-01-29T13:04:43;100686.06;;;4.38;100.00
41830;BME280;38614;43.472;23.936;2023-01-29T13:07:38;100688.38;;;4.45;100.00
41830;BME280;38614;43.472;23.936;2023-01-29T13:10:31;100691.63;;;4.33;100.00
41830;BME280;38614;43.472;23.936;2023-01-29T13:13:41;100686.22;;;4.55;100.00
41830;BME280;38614;43.472;23.936;2023-01-29T13:16:36;100643.69;;;4.49;100.00
41830;BME280;38614;43.472;23.936;2023-01-29T13:19:40;100674.47;;;4.55;100.00
41830;BME280;38614;43.472;23.936;2023-01-29T13:22:35;100685.13;;;4.56;100.00
41830;BME280;38614;43.472;23.936;2023-01-29T13:25:26;100690.41;;;4.39;100.00
41830;BME280;38614;43.472;23.936;2023-01-29T13:28:22;100689.59;;;4.39;100.00
41830;BME280;38614;43.472;23.936;2023-01-29T13:31:32;100701.13;;;4.36;100.00
41830;BME280;38614;43.472;23.936;2023-01-29T13:37:30;100702.97;;;4.26;100.00
41830;BME280;38614;43.472;23.936;2023-01-29T13:40:29;100699.81;;;3.92;100.00
41830;BME280;38614;43.472;23.936;2023-01-29T13:43:21;100697.38;;;4.04;100.00
41830;BME280;38614;43.472;23.936;2023-01-29T13:46:16;100695.72;;;3.89;100.00
41830;BME280;38614;43.472;23.936;2023-01-29T13:49:39;100702.09;;;3.85;100.00
41830;BME280;38614;43.472;23.936;2023-01-29T13:52:45;100710.25;;;4.04;100.00
41830;BME280;38614;43.472;23.936;2023-01-29T13:55:39;100696.53;;;3.90;100.00
41830;BME280;38614;43.472;23.936;2023-01-29T14:04:35;100645.16;;;3.59;100.00
41830;BME280;38614;43.472;23.936;2023-01-29T14:07:59;100697.81;;;4.11;100.00
41830;BME280;38614;43.472;23.936;2023-01-29T14:17:30;100710.94;;;3.95;100.00
41830;BME280;38614;43.472;23.936;2023-01-29T14:20:40;100688.44;;;3.85;100.00
41830;BME280;38614;43.472;23.936;2023-01-29T14:26:43;100721.84;;;3.82;100.00
41830;BME280;38614;43.472;23.936;2023-01-29T14:29:36;100708.56;;;3.75;100.00
41830;BME280;38614;43.472;23.936;2023-01-29T14:32:28;100722.06;;;3.85;100.00
41830;BME280;38614;43.472;23.936;2023-01-29T14:35:19;100676.56;;;3.43;100.00
41830;BME280;38614;43.472;23.936;2023-01-29T14:38:13;100721.94;;;3.77;100.00
41830;BME280;38614;43.472;23.936;2023-01-29T14:41:13;100718.09;;;3.78;100.00
41830;BME280;38614;43.472;23.936;2023-01-29T14:53:53;100724.53;;;3.68;100.00
41830;BME280;38614;43.472;23.936;2023-01-29T14:57:00;100703.34;;;3.60;100.00
41830;BME280;38614;43.472;23.936;2023-01-29T15:00:04;100701.97;;;3.43;100.00
41830;BME280;38614;43.472;23.936;2023-01-29T15:02:56;100675.22;;;3.27;100.00
41830;BME280;38614;43.472;23.936;2023-01-29T15:05:48;100725.97;;;3.47;100.00
41830;BME280;38614;43.472;23.936;2023-01-29T15:08:44;100708.19;;;3.30;100.00
41830;BME280;38614;43.472;23.936;2023-01-29T15:11:46;100698.53;;;3.19;100.00
41830;BME280;38614;43.472;23.936;2023-01-29T15:14:41;100685.41;;;3.02;100.00
41830;BME280;38614;43.472;23.936;2023-01-29T15:17:54;100727.16;;;3.40;100.00
41830;BME280;38614;43.472;23.936;2023-01-29T15:20:44;100727.16;;;3.40;100.00
41830;BME280;38614;43.472;23.936;2023-01-29T15:23:33;100695.28;;;3.36;100.00
41830;BME280;38614;43.472;23.936;2023-01-29T15:26:24;100708.47;;;3.48;100.00
41830;BME280;38614;43.472;23.936;2023-01-29T15:29:22;100726.03;;;3.41;100.00
41830;BME280;38614;43.472;23.936;2023-01-29T15:32:17;100699.34;;;3.38;100.00
41830;BME280;38614;43.472;23.936;2023-01-29T15:38:21;100707.28;;;3.35;100.00
41830;BME280;38614;43.472;23.936;2023-01-29T15:41:20;100730.56;;;3.32;100.00
41830;BME280;38614;43.472;23.936;2023-01-29T15:44:22;100738.38;;;3.39;100.00
41830;BME280;38614;43.472;23.936;2023-01-29T15:47:09;100735.00;;;3.28;100.00
41830;BME280;38614;43.472;23.936;2023-01-29T15:49:59;100721.91;;;3.25;100.00
41830;BME280;38614;43.472;23.936;2023-01-29T15:52:49;100724.88;;;3.29;100.00
41830;BME280;38614;43.472;23.936;2023-01-29T15:55:40;100736.31;;;3.31;100.00
41830;BME280;38614;43.472;23.936;2023-01-29T15:58:32;100732.28;;;3.28;100.00
41830;BME280;38614;43.472;23.936;2023-01-29T16:01:27;100732.28;;;3.28;100.00
41830;BME280;38614;43.472;23.936;2023-01-29T16:04:23;100736.69;;;3.24;100.00
41830;BME280;38614;43.472;23.936;2023-01-29T16:07:15;100752.72;;;3.31;100.00
41830;BME280;38614;43.472;23.936;2023-01-29T16:10:10;100751.00;;;3.35;100.00
41830;BME280;38614;43.472;23.936;2023-01-29T16:13:02;100728.94;;;3.12;100.00
41830;BME280;38614;43.472;23.936;2023-01-29T16:16:05;100715.06;;;2.90;100.00
41830;BME280;38614;43.472;23.936;2023-01-29T16:19:26;100760.59;;;3.13;100.00
41830;BME280;38614;43.472;23.936;2023-01-29T16:22:17;100761.56;;;3.23;100.00
41830;BME280;38614;43.472;23.936;2023-01-29T16:25:07;100763.34;;;3.13;100.00
41830;BME280;38614;43.472;23.936;2023-01-29T16:28:02;100741.31;;;2.86;100.00
41830;BME280;38614;43.472;23.936;2023-01-29T16:30:58;100753.66;;;3.02;100.00
41830;BME280;38614;43.472;23.936;2023-01-29T16:33:50;100765.84;;;3.10;100.00
41830;BME280;38614;43.472;23.936;2023-01-29T16:36:43;100771.59;;;2.90;100.00
41830;BME280;38614;43.472;23.936;2023-01-29T16:39:37;100770.19;;;2.92;100.00
41830;BME280;38614;43.472;23.936;2023-01-29T16:42:30;100760.66;;;2.90;100.00
41830;BME280;38614;43.472;23.936;2023-01-29T16:45:30;100767.78;;;2.85;100.00
41830;BME280;38614;43.472;23.936;2023-01-29T16:48:31;100764.34;;;2.80;100.00
41830;BME280;38614;43.472;23.936;2023-01-29T16:54:14;100771.13;;;2.82;100.00
41830;BME280;38614;43.472;23.936;2023-01-29T16:57:25;100736.75;;;2.57;100.00
41830;BME280;38614;43.472;23.936;2023-01-29T17:00:25;100758.47;;;2.68;100.00
41830;BME280;38614;43.472;23.936;2023-01-29T17:03:16;100779.34;;;2.77;100.00